sensor_id;sensor_type;location;lat;lon;timestamp;temperature;humidity
4509;DHT22;2267;48.816;9.230;2024-03-06T00:01:57;9.30;99.90
4509;DHT22;2267;48.816;9.230;2024-03-06T00:04:24;9.20;99.90
4509;DHT22;2267;48.816;9.230;2024-03-06T00:06:51;9.30;99.90
4509;DHT22;2267;48.816;9.230;2024-03-06T00:09:19;9.30;99.90
4509;DHT22;2267;48.816;9.230;2024-03-06T00:11:46;9.30;99.90
4509;DHT22;2267;48.816;9.230;2024-03-06T00:14:13;9.30;99.90
4509;DHT22;2267;48.816;9.230;2024-03-06T00:16:40;9.30;99.90
4509;DHT22;2267;48.816;9.230;2024-03-06T00:19:07;9.20;99.90
4509;DHT22;2267;48.816;9.230;2024-03-06T00:21:34;9.20;99.90
4509;DHT22;2267;48.816;9.230;2024-03-06T00:24:03;9.20;99.90
4509;DHT22;2267;48.816;9.230;2024-03-06T00:26:30;9.20;99.90
4509;DHT22;2267;48.816;9.230;2024-03-06T00:28:57;9.20;99.90
4509;DHT22;2267;48.816;9.230;2024-03-06T00:31:24;9.20;99.90
4509;DHT22;2267;48.816;9.230;2024-03-06T00:33:51;9.20;99.90
4509;DHT22;2267;48.816;9.230;2024-03-06T00:36:18;9.20;99.90
4509;DHT22;2267;48.816;9.230;2024-03-06T00:38:44;9.20;99.90
4509;DHT22;2267;48.816;9.230;2024-03-06T00:41:11;9.20;99.90
4509;DHT22;2267;48.816;9.230;2024-03-06T00:43:38;9.20;99.90
4509;DHT22;2267;48.816;9.230;2024-03-06T00:46:05;9.20;99.90
4509;DHT22;2267;48.816;9.230;2024-03-06T00:48:32;9.20;99.90
4509;DHT22;2267;48.816;9.230;2024-03-06T00:50:59;9.20;99.90
4509;DHT22;2267;48.816;9.230;2024-03-06T00:53:26;9.20;99.90
4509;DHT22;2267;48.816;9.230;2024-03-06T00:55:53;9.20;99.90
4509;DHT22;2267;48.816;9.230;2024-03-06T00:58:20;9.20;99.90
4509;DHT22;2267;48.816;9.230;2024-03-06T01:00:47;9.20;99.90
4509;DHT22;2267;48.816;9.230;2024-03-06T01:03:14;9.20;99.90
4509;DHT22;2267;48.816;9.230;2024-03-06T01:05:41;9.20;99.90
4509;DHT22;2267;48.816;9.230;2024-03-06T01:08:07;9.20;99.90
4509;DHT22;2267;48.816;9.230;2024-03-06T01:10:34;9.20;99.90
4509;DHT22;2267;48.816;9.230;2024-03-06T01:13:02;9.10;99.90
4509;DHT22;2267;48.816;9.230;2024-03-06T01:15:29;9.20;99.90
4509;DHT22;2267;48.816;9.230;2024-03-06T01:17:56;9.10;99.90
4509;DHT22;2267;48.816;9.230;2024-03-06T01:20:24;9.20;99.90
4509;DHT22;2267;48.816;9.230;2024-03-06T01:22:51;9.10;99.90
4509;DHT22;2267;48.816;9.230;2024-03-06T01:25:18;9.10;99.90
4509;DHT22;2267;48.816;9.230;2024-03-06T01:27:45;9.10;99.90
4509;DHT22;2267;48.816;9.230;2024-03-06T01:30:12;9.10;99.90
4509;DHT22;2267;48.816;9.230;2024-03-06T01:32:38;9.10;99.90
4509;DHT22;2267;48.816;9.230;2024-03-06T01:35:06;9.10;99.90
4509;DHT22;2267;48.816;9.230;2024-03-06T01:37:33;9.10;99.90
4509;DHT22;2267;48.816;9.230;2024-03-06T01:40:00;9.10;99.90
4509;DHT22;2267;48.816;9.230;2024-03-06T01:42:30;9.10;99.90
4509;DHT22;2267;48.816;9.230;2024-03-06T01:44:57;9.10;99.90
4509;DHT22;2267;48.816;9.230;2024-03-06T01:47:24;9.10;99.90
4509;DHT22;2267;48.816;9.230;2024-03-06T01:49:51;9.10;99.90
4509;DHT22;2267;48.816;9.230;2024-03-06T01:52:19;9.00;99.90
4509;DHT22;2267;48.816;9.230;2024-03-06T01:54:48;9.10;99.90
4509;DHT22;2267;48.816;9.230;2024-03-06T01:57:17;9.00;99.90
4509;DHT22;2267;48.816;9.230;2024-03-06T01:59:44;9.00;99.90
4509;DHT22;2267;48.816;9.230;2024-03-06T02:02:11;9.00;99.90
4509;DHT22;2267;48.816;9.230;2024-03-06T02:04:38;9.00;99.90
4509;DHT22;2267;48.816;9.230;2024-03-06T02:07:09;9.00;99.90
4509;DHT22;2267;48.816;9.230;2024-03-06T02:09:39;9.00;99.90
4509;DHT22;2267;48.816;9.230;2024-03-06T02:12:07;9.10;99.90
4509;DHT22;2267;48.816;9.230;2024-03-06T02:14:38;9.10;99.90
4509;DHT22;2267;48.816;9.230;2024-03-06T02:17:05;9.10;99.90
4509;DHT22;2267;48.816;9.230;2024-03-06T02:19:43;9.10;99.90
4509;DHT22;2267;48.816;9.230;2024-03-06T02:22:11;9.10;99.90
4509;DHT22;2267;48.816;9.230;2024-03-06T02:24:45;9.10;99.90
4509;DHT22;2267;48.816;9.230;2024-03-06T02:27:12;9.10;99.90
4509;DHT22;2267;48.816;9.230;2024-03-06T02:29:39;9.10;99.90
4509;DHT22;2267;48.816;9.230;2024-03-06T02:32:06;9.00;99.90
4509;DHT22;2267;48.816;9.230;2024-03-06T02:34:33;9.00;99.90
4509;DHT22;2267;48.816;9.230;2024-03-06T02:36:59;9.00;99.90
4509;DHT22;2267;48.816;9.230;2024-03-06T02:39:26;9.00;99.90
4509;DHT22;2267;48.816;9.230;2024-03-06T02:41:53;9.00;99.90
4509;DHT22;2267;48.816;9.230;2024-03-06T02:44:20;9.00;99.90
4509;DHT22;2267;48.816;9.230;2024-03-06T02:46:50;9.00;99.90
4509;DHT22;2267;48.816;9.230;2024-03-06T02:49:17;9.00;99.90
4509;DHT22;2267;48.816;9.230;2024-03-06T02:51:44;9.00;99.90
4509;DHT22;2267;48.816;9.230;2024-03-06T02:54:12;9.00;99.90
4509;DHT22;2267;48.816;9.230;2024-03-06T02:56:38;9.00;99.90
4509;DHT22;2267;48.816;9.230;2024-03-06T02:59:05;9.00;99.90
4509;DHT22;2267;48.816;9.230;2024-03-06T03:01:32;9.00;99.90
4509;DHT22;2267;48.816;9.230;2024-03-06T03:03:59;9.00;99.90
4509;DHT22;2267;48.816;9.230;2024-03-06T03:06:27;9.00;99.90
4509;DHT22;2267;48.816;9.230;2024-03-06T03:08:54;9.00;99.90
4509;DHT22;2267;48.816;9.230;2024-03-06T03:11:21;8.90;99.90
4509;DHT22;2267;48.816;9.230;2024-03-06T03:13:47;8.90;99.90
4509;DHT22;2267;48.816;9.230;2024-03-06T03:16:18;8.90;99.90
4509;DHT22;2267;48.816;9.230;2024-03-06T03:18:45;8.90;99.90
4509;DHT22;2267;48.816;9.230;2024-03-06T03:21:12;8.90;99.90
4509;DHT22;2267;48.816;9.230;2024-03-06T03:23:42;8.90;99.90
4509;DHT22;2267;48.816;9.230;2024-03-06T03:26:09;8.80;99.90
4509;DHT22;2267;48.816;9.230;2024-03-06T03:28:39;8.80;99.90
4509;DHT22;2267;48.816;9.230;2024-03-06T03:31:07;8.80;99.90
4509;DHT22;2267;48.816;9.230;2024-03-06T03:33:44;8.80;99.90
4509;DHT22;2267;48.816;9.230;2024-03-06T03:36:11;8.90;99.90
4509;DHT22;2267;48.816;9.230;2024-03-06T03:38:38;8.80;99.90
4509;DHT22;2267;48.816;9.230;2024-03-06T03:41:12;8.80;99.90
4509;DHT22;2267;48.816;9.230;2024-03-06T03:43:41;8.80;99.90
4509;DHT22;2267;48.816;9.230;2024-03-06T03:46:08;8.80;99.90
4509;DHT22;2267;48.816;9.230;2024-03-06T03:48:36;8.90;99.90
4509;DHT22;2267;48.816;9.230;2024-03-06T03:51:04;8.90;99.90
4509;DHT22;2267;48.816;9.230;2024-03-06T03:53:32;8.90;99.90
4509;DHT22;2267;48.816;9.230;2024-03-06T03:56:00;8.90;99.90
4509;DHT22;2267;48.816;9.230;2024-03-06T03:58:27;8.90;99.90
4509;DHT22;2267;48.816;9.230;2024-03-06T04:00:54;8.90;99.90
4509;DHT22;2267;48.816;9.230;2024-03-06T04:03:22;8.90;99.90
4509;DHT22;2267;48.816;9.230;2024-03-06T04:05:50;8.90;99.90
4509;DHT22;2267;48.816;9.230;2024-03-06T04:08:17;8.90;99.90
4509;DHT22;2267;48.816;9.230;2024-03-06T04:10:44;8.90;99.90
4509;DHT22;2267;48.816;9.230;2024-03-06T04:13:12;8.90;99.90
4509;DHT22;2267;48.816;9.230;2024-03-06T04:15:39;8.90;99.90
4509;DHT22;2267;48.816;9.230;2024-03-06T04:18:06;8.90;99.90
4509;DHT22;2267;48.816;9.230;2024-03-06T04:20:33;8.90;99.90
4509;DHT22;2267;48.816;9.230;2024-03-06T04:23:01;8.90;99.90
4509;DHT22;2267;48.816;9.230;2024-03-06T04:25:28;8.90;99.90
4509;DHT22;2267;48.816;9.230;2024-03-06T04:27:55;8.90;99.90
4509;DHT22;2267;48.816;9.230;2024-03-06T04:30:22;8.90;99.90
4509;DHT22;2267;48.816;9.230;2024-03-06T04:32:49;8.90;99.90
4509;DHT22;2267;48.816;9.230;2024-03-06T04:35:16;8.90;99.90
4509;DHT22;2267;48.816;9.230;2024-03-06T04:37:43;8.90;99.90
4509;DHT22;2267;48.816;9.230;2024-03-06T04:40:11;8.90;99.90
4509;DHT22;2267;48.816;9.230;2024-03-06T04:42:38;8.90;99.90
4509;DHT22;2267;48.816;9.230;2024-03-06T04:45:11;8.90;99.90
4509;DHT22;2267;48.816;9.230;2024-03-06T04:47:42;8.90;99.90
4509;DHT22;2267;48.816;9.230;2024-03-06T04:50:12;8.90;99.90
4509;DHT22;2267;48.816;9.230;2024-03-06T04:52:42;8.90;99.90
4509;DHT22;2267;48.816;9.230;2024-03-06T04:55:09;8.90;99.90
4509;DHT22;2267;48.816;9.230;2024-03-06T04:57:39;8.90;99.90
4509;DHT22;2267;48.816;9.230;2024-03-06T05:00:10;8.90;99.90
4509;DHT22;2267;48.816;9.230;2024-03-06T05:02:37;8.90;99.90
4509;DHT22;2267;48.816;9.230;2024-03-06T05:05:22;8.90;99.90
4509;DHT22;2267;48.816;9.230;2024-03-06T05:08:07;8.90;99.90
4509;DHT22;2267;48.816;9.230;2024-03-06T05:10:51;8.90;99.90
4509;DHT22;2267;48.816;9.230;2024-03-06T05:13:35;8.90;99.90
4509;DHT22;2267;48.816;9.230;2024-03-06T05:16:19;8.90;99.90
4509;DHT22;2267;48.816;9.230;2024-03-06T05:19:06;8.90;99.90
4509;DHT22;2267;48.816;9.230;2024-03-06T05:21:50;8.90;99.90
4509;DHT22;2267;48.816;9.230;2024-03-06T05:24:35;8.80;99.90
4509;DHT22;2267;48.816;9.230;2024-03-06T05:27:19;8.90;99.90
4509;DHT22;2267;48.816;9.230;2024-03-06T05:30:04;8.90;99.90
4509;DHT22;2267;48.816;9.230;2024-03-06T05:32:49;8.90;99.90
4509;DHT22;2267;48.816;9.230;2024-03-06T05:35:34;8.90;99.90
4509;DHT22;2267;48.816;9.230;2024-03-06T05:38:18;8.90;99.90
4509;DHT22;2267;48.816;9.230;2024-03-06T05:41:03;8.90;99.90
4509;DHT22;2267;48.816;9.230;2024-03-06T05:43:47;8.90;99.90
4509;DHT22;2267;48.816;9.230;2024-03-06T05:46:31;8.90;99.90
4509;DHT22;2267;48.816;9.230;2024-03-06T05:49:16;8.90;99.90
4509;DHT22;2267;48.816;9.230;2024-03-06T05:52:00;8.80;99.90
4509;DHT22;2267;48.816;9.230;2024-03-06T05:54:44;8.90;99.90
4509;DHT22;2267;48.816;9.230;2024-03-06T05:57:28;8.80;99.90
4509;DHT22;2267;48.816;9.230;2024-03-06T06:00:13;8.90;99.90
4509;DHT22;2267;48.816;9.230;2024-03-06T06:02:40;8.80;99.90
4509;DHT22;2267;48.816;9.230;2024-03-06T06:05:07;8.80;99.90
4509;DHT22;2267;48.816;9.230;2024-03-06T06:07:50;8.80;99.90
4509;DHT22;2267;48.816;9.230;2024-03-06T06:10:17;8.90;99.90
4509;DHT22;2267;48.816;9.230;2024-03-06T06:12:48;8.80;99.90
4509;DHT22;2267;48.816;9.230;2024-03-06T06:15:15;8.80;99.90
4509;DHT22;2267;48.816;9.230;2024-03-06T06:17:42;8.90;99.90
4509;DHT22;2267;48.816;9.230;2024-03-06T06:20:12;8.90;99.90
4509;DHT22;2267;48.816;9.230;2024-03-06T06:22:43;8.90;99.90
4509;DHT22;2267;48.816;9.230;2024-03-06T06:25:10;8.90;99.90
4509;DHT22;2267;48.816;9.230;2024-03-06T06:27:37;8.90;99.90
4509;DHT22;2267;48.816;9.230;2024-03-06T06:30:06;8.90;99.90
4509;DHT22;2267;48.816;9.230;2024-03-06T06:32:34;8.90;99.90
4509;DHT22;2267;48.816;9.230;2024-03-06T06:35:01;8.90;99.90
4509;DHT22;2267;48.816;9.230;2024-03-06T06:37:28;8.80;99.90
4509;DHT22;2267;48.816;9.230;2024-03-06T06:39:55;8.80;99.90
4509;DHT22;2267;48.816;9.230;2024-03-06T06:42:22;8.80;99.90
4509;DHT22;2267;48.816;9.230;2024-03-06T06:44:50;8.80;99.90
4509;DHT22;2267;48.816;9.230;2024-03-06T06:47:17;8.80;99.90
4509;DHT22;2267;48.816;9.230;2024-03-06T06:49:44;8.90;99.90
4509;DHT22;2267;48.816;9.230;2024-03-06T06:52:11;8.90;99.90
4509;DHT22;2267;48.816;9.230;2024-03-06T06:54:38;8.90;99.90
4509;DHT22;2267;48.816;9.230;2024-03-06T06:57:05;8.90;99.90
4509;DHT22;2267;48.816;9.230;2024-03-06T06:59:31;8.90;99.90
4509;DHT22;2267;48.816;9.230;2024-03-06T07:01:58;8.90;99.90
4509;DHT22;2267;48.816;9.230;2024-03-06T07:04:26;8.90;99.90
4509;DHT22;2267;48.816;9.230;2024-03-06T07:06:53;8.90;99.90
4509;DHT22;2267;48.816;9.230;2024-03-06T07:09:20;9.00;99.90
4509;DHT22;2267;48.816;9.230;2024-03-06T07:11:47;8.90;99.90
4509;DHT22;2267;48.816;9.230;2024-03-06T07:14:14;8.90;99.90
4509;DHT22;2267;48.816;9.230;2024-03-06T07:16:43;9.00;99.90
4509;DHT22;2267;48.816;9.230;2024-03-06T07:19:11;9.00;99.90
4509;DHT22;2267;48.816;9.230;2024-03-06T07:21:38;9.00;99.90
4509;DHT22;2267;48.816;9.230;2024-03-06T07:24:05;9.00;99.90
4509;DHT22;2267;48.816;9.230;2024-03-06T07:26:32;9.00;99.90
4509;DHT22;2267;48.816;9.230;2024-03-06T07:29:00;9.00;99.90
4509;DHT22;2267;48.816;9.230;2024-03-06T07:31:28;9.00;99.90
4509;DHT22;2267;48.816;9.230;2024-03-06T07:33:55;9.00;99.90
4509;DHT22;2267;48.816;9.230;2024-03-06T07:36:22;9.00;99.90
4509;DHT22;2267;48.816;9.230;2024-03-06T07:38:48;9.00;99.90
4509;DHT22;2267;48.816;9.230;2024-03-06T07:41:15;9.10;99.90
4509;DHT22;2267;48.816;9.230;2024-03-06T07:43:43;9.10;99.90
4509;DHT22;2267;48.816;9.230;2024-03-06T07:46:10;9.10;99.90
4509;DHT22;2267;48.816;9.230;2024-03-06T07:48:38;9.10;99.90
4509;DHT22;2267;48.816;9.230;2024-03-06T07:51:08;9.10;99.90
4509;DHT22;2267;48.816;9.230;2024-03-06T07:53:35;9.10;99.90
4509;DHT22;2267;48.816;9.230;2024-03-06T07:56:03;9.10;99.90
4509;DHT22;2267;48.816;9.230;2024-03-06T07:58:30;9.10;99.90
4509;DHT22;2267;48.816;9.230;2024-03-06T08:00:57;9.10;99.90
4509;DHT22;2267;48.816;9.230;2024-03-06T08:03:26;9.10;99.90
4509;DHT22;2267;48.816;9.230;2024-03-06T08:05:53;9.10;99.90
4509;DHT22;2267;48.816;9.230;2024-03-06T08:08:20;9.10;99.90
4509;DHT22;2267;48.816;9.230;2024-03-06T08:10:48;9.10;99.90
4509;DHT22;2267;48.816;9.230;2024-03-06T08:13:15;9.10;99.90
4509;DHT22;2267;48.816;9.230;2024-03-06T08:15:42;9.10;99.90
4509;DHT22;2267;48.816;9.230;2024-03-06T08:18:10;9.20;99.90
4509;DHT22;2267;48.816;9.230;2024-03-06T08:20:38;9.10;99.90
4509;DHT22;2267;48.816;9.230;2024-03-06T08:23:07;9.10;99.90
4509;DHT22;2267;48.816;9.230;2024-03-06T08:25:33;9.10;99.90
4509;DHT22;2267;48.816;9.230;2024-03-06T08:28:00;9.10;99.90
4509;DHT22;2267;48.816;9.230;2024-03-06T08:30:30;9.20;99.90
4509;DHT22;2267;48.816;9.230;2024-03-06T08:32:59;9.10;99.90
4509;DHT22;2267;48.816;9.230;2024-03-06T08:35:27;9.10;99.90
4509;DHT22;2267;48.816;9.230;2024-03-06T08:37:54;9.20;99.90
4509;DHT22;2267;48.816;9.230;2024-03-06T08:40:21;9.20;99.90
4509;DHT22;2267;48.816;9.230;2024-03-06T08:42:50;9.20;99.90
4509;DHT22;2267;48.816;9.230;2024-03-06T08:45:17;9.20;99.90
4509;DHT22;2267;48.816;9.230;2024-03-06T08:47:44;9.20;99.90
4509;DHT22;2267;48.816;9.230;2024-03-06T08:50:12;9.20;99.90
4509;DHT22;2267;48.816;9.230;2024-03-06T08:52:40;9.20;99.90
4509;DHT22;2267;48.816;9.230;2024-03-06T08:55:09;9.20;99.90
4509;DHT22;2267;48.816;9.230;2024-03-06T08:57:36;9.10;99.90
4509;DHT22;2267;48.816;9.230;2024-03-06T09:00:04;9.10;99.90
4509;DHT22;2267;48.816;9.230;2024-03-06T09:02:35;9.20;99.90
4509;DHT22;2267;48.816;9.230;2024-03-06T09:05:02;9.20;99.90
4509;DHT22;2267;48.816;9.230;2024-03-06T09:07:31;9.20;99.90
4509;DHT22;2267;48.816;9.230;2024-03-06T09:09:58;9.20;99.90
4509;DHT22;2267;48.816;9.230;2024-03-06T09:12:25;9.20;99.90
4509;DHT22;2267;48.816;9.230;2024-03-06T09:14:52;9.20;99.90
4509;DHT22;2267;48.816;9.230;2024-03-06T09:17:19;9.20;99.90
4509;DHT22;2267;48.816;9.230;2024-03-06T09:19:45;9.20;99.90
4509;DHT22;2267;48.816;9.230;2024-03-06T09:22:29;9.20;99.90
4509;DHT22;2267;48.816;9.230;2024-03-06T09:24:56;9.20;99.90
4509;DHT22;2267;48.816;9.230;2024-03-06T09:27:23;9.20;99.90
4509;DHT22;2267;48.816;9.230;2024-03-06T09:29:50;9.20;99.90
4509;DHT22;2267;48.816;9.230;2024-03-06T09:32:16;9.20;99.90
4509;DHT22;2267;48.816;9.230;2024-03-06T09:34:46;9.20;99.90
4509;DHT22;2267;48.816;9.230;2024-03-06T09:37:13;9.20;99.90
4509;DHT22;2267;48.816;9.230;2024-03-06T09:39:40;9.20;99.90
4509;DHT22;2267;48.816;9.230;2024-03-06T09:42:07;9.20;99.90
4509;DHT22;2267;48.816;9.230;2024-03-06T09:44:34;9.20;99.90
4509;DHT22;2267;48.816;9.230;2024-03-06T09:47:02;9.10;99.90
4509;DHT22;2267;48.816;9.230;2024-03-06T09:49:33;9.10;99.90
4509;DHT22;2267;48.816;9.230;2024-03-06T09:52:02;9.10;99.90
4509;DHT22;2267;48.816;9.230;2024-03-06T09:54:30;9.10;99.90
4509;DHT22;2267;48.816;9.230;2024-03-06T09:56:57;9.10;99.90
4509;DHT22;2267;48.816;9.230;2024-03-06T09:59:25;9.10;99.90
4509;DHT22;2267;48.816;9.230;2024-03-06T10:01:58;9.20;99.90
4509;DHT22;2267;48.816;9.230;2024-03-06T10:04:29;9.10;99.90
4509;DHT22;2267;48.816;9.230;2024-03-06T10:06:59;9.10;99.90
4509;DHT22;2267;48.816;9.230;2024-03-06T10:09:27;9.20;99.90
4509;DHT22;2267;48.816;9.230;2024-03-06T10:11:54;9.20;99.90
4509;DHT22;2267;48.816;9.230;2024-03-06T10:14:25;9.20;99.90
4509;DHT22;2267;48.816;9.230;2024-03-06T10:16:56;9.20;99.90
4509;DHT22;2267;48.816;9.230;2024-03-06T10:19:25;9.20;99.90
4509;DHT22;2267;48.816;9.230;2024-03-06T10:21:54;9.20;99.90
4509;DHT22;2267;48.816;9.230;2024-03-06T10:24:23;9.20;99.90
4509;DHT22;2267;48.816;9.230;2024-03-06T10:26:59;9.20;99.90
4509;DHT22;2267;48.816;9.230;2024-03-06T10:29:28;9.20;99.90
4509;DHT22;2267;48.816;9.230;2024-03-06T10:31:57;9.20;99.90
4509;DHT22;2267;48.816;9.230;2024-03-06T10:34:26;9.30;99.90
4509;DHT22;2267;48.816;9.230;2024-03-06T10:36:56;9.30;99.90
4509;DHT22;2267;48.816;9.230;2024-03-06T10:39:24;9.30;99.90
4509;DHT22;2267;48.816;9.230;2024-03-06T10:41:56;9.30;99.90
4509;DHT22;2267;48.816;9.230;2024-03-06T10:44:27;9.30;99.90
4509;DHT22;2267;48.816;9.230;2024-03-06T10:49:26;9.30;99.90
4509;DHT22;2267;48.816;9.230;2024-03-06T10:52:01;9.30;99.90
4509;DHT22;2267;48.816;9.230;2024-03-06T10:54:29;9.30;99.90
4509;DHT22;2267;48.816;9.230;2024-03-06T10:57:04;9.40;99.90
4509;DHT22;2267;48.816;9.230;2024-03-06T10:59:31;9.40;99.90
4509;DHT22;2267;48.816;9.230;2024-03-06T11:01:59;9.40;99.90
4509;DHT22;2267;48.816;9.230;2024-03-06T11:04:30;9.40;99.90
4509;DHT22;2267;48.816;9.230;2024-03-06T11:07:02;9.40;99.90
4509;DHT22;2267;48.816;9.230;2024-03-06T11:09:37;9.40;99.90
4509;DHT22;2267;48.816;9.230;2024-03-06T11:12:07;9.40;99.90
4509;DHT22;2267;48.816;9.230;2024-03-06T11:14:39;9.40;99.90
4509;DHT22;2267;48.816;9.230;2024-03-06T11:17:09;9.40;99.90
4509;DHT22;2267;48.816;9.230;2024-03-06T11:28:27;9.40;99.90
4509;DHT22;2267;48.816;9.230;2024-03-06T11:31:03;9.40;99.90
4509;DHT22;2267;48.816;9.230;2024-03-06T11:33:37;9.40;99.90
4509;DHT22;2267;48.816;9.230;2024-03-06T11:36:19;9.50;99.90
4509;DHT22;2267;48.816;9.230;2024-03-06T11:39:07;9.50;99.90
4509;DHT22;2267;48.816;9.230;2024-03-06T11:44:16;9.50;99.90
4509;DHT22;2267;48.816;9.230;2024-03-06T11:46:57;9.50;99.90
4509;DHT22;2267;48.816;9.230;2024-03-06T11:49:25;9.50;99.90
4509;DHT22;2267;48.816;9.230;2024-03-06T11:52:03;9.50;99.90
4509;DHT22;2267;48.816;9.230;2024-03-06T11:54:32;9.50;99.90
4509;DHT22;2267;48.816;9.230;2024-03-06T11:57:01;9.50;99.90
4509;DHT22;2267;48.816;9.230;2024-03-06T11:59:29;9.50;99.90
4509;DHT22;2267;48.816;9.230;2024-03-06T12:02:01;9.50;99.90
4509;DHT22;2267;48.816;9.230;2024-03-06T12:04:30;9.50;99.90
4509;DHT22;2267;48.816;9.230;2024-03-06T12:06:58;9.60;99.90
4509;DHT22;2267;48.816;9.230;2024-03-06T12:09:26;9.60;99.90
4509;DHT22;2267;48.816;9.230;2024-03-06T12:11:55;9.60;99.90
4509;DHT22;2267;48.816;9.230;2024-03-06T12:14:24;9.60;99.90
4509;DHT22;2267;48.816;9.230;2024-03-06T12:16:58;9.60;99.90
4509;DHT22;2267;48.816;9.230;2024-03-06T12:19:43;9.60;99.90
4509;DHT22;2267;48.816;9.230;2024-03-06T12:22:13;9.60;99.90
4509;DHT22;2267;48.816;9.230;2024-03-06T12:24:42;9.60;99.90
4509;DHT22;2267;48.816;9.230;2024-03-06T12:27:09;9.60;99.90
4509;DHT22;2267;48.816;9.230;2024-03-06T12:29:36;9.60;99.90
4509;DHT22;2267;48.816;9.230;2024-03-06T12:32:05;9.60;99.90
4509;DHT22;2267;48.816;9.230;2024-03-06T12:34:42;9.60;99.90
4509;DHT22;2267;48.816;9.230;2024-03-06T12:37:09;9.60;99.90
4509;DHT22;2267;48.816;9.230;2024-03-06T12:39:39;9.60;99.90
4509;DHT22;2267;48.816;9.230;2024-03-06T12:42:09;9.60;99.90
4509;DHT22;2267;48.816;9.230;2024-03-06T12:44:36;9.60;99.90
4509;DHT22;2267;48.816;9.230;2024-03-06T12:47:03;9.60;99.90
4509;DHT22;2267;48.816;9.230;2024-03-06T12:49:30;9.60;99.90
4509;DHT22;2267;48.816;9.230;2024-03-06T12:51:57;9.60;99.90
4509;DHT22;2267;48.816;9.230;2024-03-06T12:54:28;9.60;99.90
4509;DHT22;2267;48.816;9.230;2024-03-06T12:56:55;9.70;99.90
4509;DHT22;2267;48.816;9.230;2024-03-06T12:59:23;9.70;99.90
4509;DHT22;2267;48.816;9.230;2024-03-06T13:01:50;9.60;99.90
4509;DHT22;2267;48.816;9.230;2024-03-06T13:04:17;9.70;99.90
4509;DHT22;2267;48.816;9.230;2024-03-06T13:06:44;9.70;99.90
4509;DHT22;2267;48.816;9.230;2024-03-06T13:09:12;9.70;99.90
4509;DHT22;2267;48.816;9.230;2024-03-06T13:11:40;9.70;99.90
4509;DHT22;2267;48.816;9.230;2024-03-06T13:14:08;9.70;99.90
4509;DHT22;2267;48.816;9.230;2024-03-06T13:16:39;9.70;99.90
4509;DHT22;2267;48.816;9.230;2024-03-06T13:19:07;9.70;99.90
4509;DHT22;2267;48.816;9.230;2024-03-06T13:21:35;9.70;99.90
4509;DHT22;2267;48.816;9.230;2024-03-06T13:24:02;9.70;99.90
4509;DHT22;2267;48.816;9.230;2024-03-06T13:26:29;9.70;99.90
4509;DHT22;2267;48.816;9.230;2024-03-06T13:28:56;9.70;99.90
4509;DHT22;2267;48.816;9.230;2024-03-06T13:31:23;9.70;99.90
4509;DHT22;2267;48.816;9.230;2024-03-06T13:33:50;9.70;99.90
4509;DHT22;2267;48.816;9.230;2024-03-06T13:36:17;9.70;99.90
4509;DHT22;2267;48.816;9.230;2024-03-06T13:38:44;9.80;99.90
4509;DHT22;2267;48.816;9.230;2024-03-06T13:41:11;9.80;99.90
4509;DHT22;2267;48.816;9.230;2024-03-06T13:43:38;9.80;99.90
4509;DHT22;2267;48.816;9.230;2024-03-06T13:46:05;9.80;99.90
4509;DHT22;2267;48.816;9.230;2024-03-06T13:48:32;9.80;99.90
4509;DHT22;2267;48.816;9.230;2024-03-06T13:50:59;9.80;99.90
4509;DHT22;2267;48.816;9.230;2024-03-06T13:53:26;9.80;99.90
4509;DHT22;2267;48.816;9.230;2024-03-06T13:55:53;9.80;99.90
4509;DHT22;2267;48.816;9.230;2024-03-06T13:58:20;9.80;99.90
4509;DHT22;2267;48.816;9.230;2024-03-06T14:00:47;9.80;99.90
4509;DHT22;2267;48.816;9.230;2024-03-06T14:03:14;9.70;99.90
4509;DHT22;2267;48.816;9.230;2024-03-06T14:05:40;9.80;99.90
4509;DHT22;2267;48.816;9.230;2024-03-06T14:08:07;9.70;99.90
4509;DHT22;2267;48.816;9.230;2024-03-06T14:10:39;9.70;99.90
4509;DHT22;2267;48.816;9.230;2024-03-06T14:13:07;9.70;99.90
4509;DHT22;2267;48.816;9.230;2024-03-06T14:15:35;9.70;99.90
4509;DHT22;2267;48.816;9.230;2024-03-06T14:18:05;9.70;99.90
4509;DHT22;2267;48.816;9.230;2024-03-06T14:20:33;9.70;99.90
4509;DHT22;2267;48.816;9.230;2024-03-06T14:23:00;9.70;99.90
4509;DHT22;2267;48.816;9.230;2024-03-06T14:25:27;9.70;99.90
4509;DHT22;2267;48.816;9.230;2024-03-06T14:27:54;9.70;99.90
4509;DHT22;2267;48.816;9.230;2024-03-06T14:30:21;9.70;99.90
4509;DHT22;2267;48.816;9.230;2024-03-06T14:32:48;9.70;99.90
4509;DHT22;2267;48.816;9.230;2024-03-06T14:35:15;9.70;99.90
4509;DHT22;2267;48.816;9.230;2024-03-06T14:37:42;9.80;99.90
4509;DHT22;2267;48.816;9.230;2024-03-06T14:40:09;9.80;99.90
4509;DHT22;2267;48.816;9.230;2024-03-06T14:42:36;9.70;99.90
4509;DHT22;2267;48.816;9.230;2024-03-06T14:45:03;9.70;99.90
4509;DHT22;2267;48.816;9.230;2024-03-06T14:47:32;9.70;99.90
4509;DHT22;2267;48.816;9.230;2024-03-06T14:49:59;9.80;99.90
4509;DHT22;2267;48.816;9.230;2024-03-06T14:52:26;9.80;99.90
4509;DHT22;2267;48.816;9.230;2024-03-06T14:54:53;9.80;99.90
4509;DHT22;2267;48.816;9.230;2024-03-06T14:57:20;9.80;99.90
4509;DHT22;2267;48.816;9.230;2024-03-06T14:59:48;9.70;99.90
4509;DHT22;2267;48.816;9.230;2024-03-06T15:02:16;9.80;99.90
4509;DHT22;2267;48.816;9.230;2024-03-06T15:04:46;9.70;99.90
4509;DHT22;2267;48.816;9.230;2024-03-06T15:07:13;9.80;99.90
4509;DHT22;2267;48.816;9.230;2024-03-06T15:09:39;9.70;99.90
4509;DHT22;2267;48.816;9.230;2024-03-06T15:12:07;9.80;99.90
4509;DHT22;2267;48.816;9.230;2024-03-06T15:14:34;9.80;99.90
4509;DHT22;2267;48.816;9.230;2024-03-06T15:17:11;9.80;99.90
4509;DHT22;2267;48.816;9.230;2024-03-06T15:19:39;9.80;99.90
4509;DHT22;2267;48.816;9.230;2024-03-06T15:22:07;9.80;99.90
4509;DHT22;2267;48.816;9.230;2024-03-06T15:24:34;9.80;99.90
4509;DHT22;2267;48.816;9.230;2024-03-06T15:27:01;9.80;99.90
4509;DHT22;2267;48.816;9.230;2024-03-06T15:29:28;9.80;99.90
4509;DHT22;2267;48.816;9.230;2024-03-06T15:31:54;9.80;99.90
4509;DHT22;2267;48.816;9.230;2024-03-06T15:34:21;9.80;99.90
4509;DHT22;2267;48.816;9.230;2024-03-06T15:36:48;9.80;99.90
4509;DHT22;2267;48.816;9.230;2024-03-06T15:39:15;9.80;99.90
4509;DHT22;2267;48.816;9.230;2024-03-06T15:41:42;9.80;99.90
4509;DHT22;2267;48.816;9.230;2024-03-06T15:44:09;9.80;99.90
4509;DHT22;2267;48.816;9.230;2024-03-06T15:46:36;9.80;99.90
4509;DHT22;2267;48.816;9.230;2024-03-06T15:49:07;9.80;99.90
4509;DHT22;2267;48.816;9.230;2024-03-06T15:51:34;9.80;99.90
4509;DHT22;2267;48.816;9.230;2024-03-06T15:54:01;9.80;99.90
4509;DHT22;2267;48.816;9.230;2024-03-06T15:56:27;9.80;99.90
4509;DHT22;2267;48.816;9.230;2024-03-06T15:58:55;9.80;99.90
4509;DHT22;2267;48.816;9.230;2024-03-06T16:01:22;9.80;99.90
4509;DHT22;2267;48.816;9.230;2024-03-06T16:03:49;9.80;99.90
4509;DHT22;2267;48.816;9.230;2024-03-06T16:06:19;9.80;99.90
4509;DHT22;2267;48.816;9.230;2024-03-06T16:08:51;9.80;99.90
4509;DHT22;2267;48.816;9.230;2024-03-06T16:11:18;9.80;99.90
4509;DHT22;2267;48.816;9.230;2024-03-06T16:13:45;9.80;99.90
4509;DHT22;2267;48.816;9.230;2024-03-06T16:16:12;9.80;99.90
4509;DHT22;2267;48.816;9.230;2024-03-06T16:18:38;9.80;99.90
4509;DHT22;2267;48.816;9.230;2024-03-06T16:21:05;9.80;99.90
4509;DHT22;2267;48.816;9.230;2024-03-06T16:23:33;9.80;99.90
4509;DHT22;2267;48.816;9.230;2024-03-06T16:26:03;9.80;99.90
4509;DHT22;2267;48.816;9.230;2024-03-06T16:28:30;9.80;99.90
4509;DHT22;2267;48.816;9.230;2024-03-06T16:30:57;9.80;99.90
4509;DHT22;2267;48.816;9.230;2024-03-06T16:33:24;9.80;99.90
4509;DHT22;2267;48.816;9.230;2024-03-06T16:35:51;9.80;99.90
4509;DHT22;2267;48.816;9.230;2024-03-06T16:38:18;9.80;99.90
4509;DHT22;2267;48.816;9.230;2024-03-06T16:40:46;9.80;99.90
4509;DHT22;2267;48.816;9.230;2024-03-06T16:43:14;9.80;99.90